Time;durP1;ratioP1;P1;durP2;ratioP2;P2;SDS_P1;SDS_P2;PMS_P1;PMS_P2;Temp;Humidity;BMP_temperature;BMP_pressure;BME280_temperature;BME280_humidity;BME280_pressure;Samples;Min_cycle;Max_cycle;Signal;HPM_P1;HPM_P2
2022/01/01 00:00:55;;;;;;;0.10;0.10;;;;;24.80;99700.00;;;;5109753;28;20448;-76
2022/01/01 00:03:25;;;;;;;0.00;0.00;;;;;24.70;99704.00;;;;5109639;28;20085;-79
2022/01/01 00:05:54;;;;;;;0.00;0.00;;;;;24.60;99711.00;;;;5108725;27;20130;-76
2022/01/01 00:08:24;;;;;;;0.00;0.00;;;;;24.50;99695.00;;;;5108886;28;20043;-78
2022/01/01 00:10:54;;;;;;;0.35;0.35;;;;;24.50;99714.00;;;;5109531;28;20052;-81
2022/01/01 00:13:43;;;;;;;0.00;0.00;;;;;24.40;99730.00;;;;5107387;28;20055;-77
2022/01/01 00:16:13;;;;;;;0.00;0.00;;;;;24.30;99725.00;;;;5109934;28;20530;-78
2022/01/01 00:18:42;;;;;;;0.00;0.00;;;;;24.30;99745.00;;;;5104225;28;20055;-77
2022/01/01 00:21:12;;;;;;;0.00;0.00;;;;;24.20;99758.00;;;;5098364;28;20036;-76
2022/01/01 00:23:41;;;;;;;0.00;0.00;;;;;24.00;99757.00;;;;5096449;28;20066;-75
2022/01/01 00:26:11;;;;;;;0.00;0.00;;;;;23.90;99752.00;;;;5094637;28;20036;-74
2022/01/01 00:28:40;;;;;;;1.63;0.28;;;;;23.80;99752.00;;;;5096536;28;20623;-75
2022/01/01 00:31:10;;;;;;;0.00;0.00;;;;;23.70;99754.00;;;;5094074;28;20106;-74
2022/01/01 00:33:40;;;;;;;0.00;0.00;;;;;23.50;99754.00;;;;5095645;28;20039;-74
2022/01/01 00:36:10;;;;;;;3.72;0.85;;;;;23.50;99762.00;;;;5094631;28;20727;-75
2022/01/01 00:38:39;;;;;;;0.10;0.10;;;;;23.40;99771.00;;;;5098783;28;20047;-76
2022/01/01 00:41:09;;;;;;;1.08;0.55;;;;;23.30;99761.00;;;;5094978;28;20036;-75
2022/01/01 00:43:38;;;;;;;0.10;0.10;;;;;23.20;99765.00;;;;5097355;28;20035;-77
2022/01/01 00:46:08;;;;;;;0.00;0.00;;;;;23.00;99774.00;;;;5075885;28;20675;-82
2022/01/01 00:48:37;;;;;;;0.00;0.00;;;;;22.90;99767.00;;;;5094540;28;20051;-79
2022/01/01 00:51:26;;;;;;;0.00;0.00;;;;;22.80;99753.00;;;;5096630;28;20413;-75
2022/01/01 00:53:56;;;;;;;7.10;2.20;;;;;22.70;99782.00;;;;5092413;28;20044;-77
2022/01/01 00:56:26;;;;;;;0.00;0.00;;;;;22.70;99743.00;;;;5096346;28;20135;-77
2022/01/01 00:58:56;;;;;;;0.00;0.00;;;;;22.70;99784.00;;;;5089111;28;20509;-79
2022/01/01 01:01:26;;;;;;;0.00;0.00;;;;;22.60;99778.00;;;;5087628;28;20101;-76
2022/01/01 01:03:56;;;;;;;0.20;0.20;;;;;22.60;99772.00;;;;5105598;28;20036;-77
2022/01/01 01:06:25;;;;;;;0.00;0.00;;;;;22.60;99785.00;;;;5108251;28;20071;-78
2022/01/01 01:08:58;;;;;;;0.30;0.30;;;;;22.50;99771.00;;;;5095861;28;20067;-75
2022/01/01 01:11:29;;;;;;;0.00;0.00;;;;;22.50;99783.00;;;;5094067;28;20084;-80
2022/01/01 01:14:00;;;;;;;0.00;0.00;;;;;22.40;99788.00;;;;5083083;28;20430;-77
2022/01/01 01:16:30;;;;;;;0.00;0.00;;;;;22.50;99794.00;;;;5087591;28;20039;-75
2022/01/01 01:18:59;;;;;;;0.00;0.00;;;;;22.60;99785.00;;;;5086869;28;20051;-75
2022/01/01 01:21:29;;;;;;;0.00;0.00;;;;;22.60;99813.00;;;;5086432;28;20043;-75
2022/01/01 01:23:59;;;;;;;0.05;0.05;;;;;22.60;99803.00;;;;5087158;28;20562;-77
2022/01/01 01:26:29;;;;;;;0.40;0.40;;;;;22.60;99806.00;;;;5081992;28;20529;-74
2022/01/01 01:29:02;;;;;;;0.00;0.00;;;;;22.60;99805.00;;;;5073869;28;20047;-76
2022/01/01 01:31:31;;;;;;;0.00;0.00;;;;;22.70;99788.00;;;;5083139;28;20044;-80
2022/01/01 01:34:02;;;;;;;0.00;0.00;;;;;22.90;99788.00;;;;5073768;28;20071;-77
2022/01/01 01:36:31;;;;;;;0.00;0.00;;;;;22.80;99748.00;;;;5080285;28;20036;-77
2022/01/01 01:39:01;;;;;;;0.00;0.00;;;;;22.80;99779.00;;;;5089747;28;20130;-76
2022/01/01 01:41:31;;;;;;;0.00;0.00;;;;;22.70;99790.00;;;;5086755;28;20044;-76
2022/01/01 01:44:03;;;;;;;0.00;0.00;;;;;22.50;99778.00;;;;5086715;28;20055;-81
2022/01/01 01:46:32;;;;;;;0.65;0.65;;;;;22.50;99792.00;;;;5086023;28;20048;-78
2022/01/01 01:49:02;;;;;;;0.00;0.00;;;;;22.50;99781.00;;;;5085564;28;20044;-81
2022/01/01 01:51:31;;;;;;;0.00;0.00;;;;;22.40;99803.00;;;;5085795;28;20040;-80
2022/01/01 01:54:01;;;;;;;0.25;0.25;;;;;22.40;99784.00;;;;5085475;28;20044;-81
2022/01/01 01:56:31;;;;;;;0.00;0.00;;;;;22.40;99780.00;;;;5085324;28;20115;-74
2022/01/01 01:59:01;;;;;;;0.00;0.00;;;;;22.40;99785.00;;;;5085471;28;20536;-77
2022/01/01 02:01:30;;;;;;;0.00;0.00;;;;;22.40;99785.00;;;;5084929;28;20555;-79
2022/01/01 02:04:00;;;;;;;0.00;0.00;;;;;22.40;99772.00;;;;5086688;28;20089;-83
2022/01/01 02:06:30;;;;;;;0.00;0.00;;;;;22.20;99788.00;;;;5087163;28;20052;-79
2022/01/01 02:08:59;;;;;;;0.00;0.00;;;;;22.00;99779.00;;;;5086721;28;20062;-76
2022/01/01 02:11:29;;;;;;;0.00;0.00;;;;;21.90;99764.00;;;;5101544;28;20043;-80
2022/01/01 02:16:36;;;;;;;0.00;0.00;;;;;21.80;99765.00;;;;5104450;28;20032;-79
2022/01/01 02:19:06;;;;;;;0.00;0.00;;;;;21.80;99776.00;;;;5100282;28;20040;-80
2022/01/01 02:21:36;;;;;;;0.10;0.10;;;;;21.70;99759.00;;;;5106644;28;20466;-78
2022/01/01 02:24:05;;;;;;;0.00;0.00;;;;;21.50;99759.00;;;;5107208;28;20055;-81
2022/01/01 02:26:35;;;;;;;0.00;0.00;;;;;21.50;99754.00;;;;5116367;28;20040;-75
2022/01/01 02:29:04;;;;;;;0.30;0.30;;;;;21.40;99766.00;;;;5117289;28;20043;-77
2022/01/01 02:31:34;;;;;;;0.00;0.00;;;;;21.40;99748.00;;;;5116214;28;20048;-77
2022/01/01 02:34:05;;;;;;;0.00;0.00;;;;;21.40;99757.00;;;;5116801;28;20071;-74
2022/01/01 02:36:39;;;;;;;0.13;0.13;;;;;21.30;99738.00;;;;5115742;28;20407;-75
2022/01/01 02:39:11;;;;;;;0.10;0.10;;;;;21.30;99748.00;;;;5116213;28;20508;-76
2022/01/01 02:41:42;;;;;;;0.38;0.28;;;;;21.20;99717.00;;;;5126714;28;20082;-77
2022/01/01 02:44:12;;;;;;;1.10;0.37;;;;;21.10;99720.00;;;;5131649;28;20024;-77
2022/01/01 02:46:42;;;;;;;0.10;0.10;;;;;21.10;99726.00;;;;5132850;28;20297;-78
2022/01/01 02:49:11;;;;;;;0.22;0.15;;;;;21.20;99716.00;;;;5127868;28;20051;-78
2022/01/01 02:51:40;;;;;;;1.52;1.42;;;;;21.20;99702.00;;;;5124434;28;20032;-76
2022/01/01 02:54:10;;;;;;;1.90;1.08;;;;;21.10;99703.00;;;;5130318;28;20572;-79
2022/01/01 02:56:40;;;;;;;0.15;0.15;;;;;21.10;99699.00;;;;5124662;28;20043;-79
2022/01/01 02:59:09;;;;;;;0.00;0.00;;;;;21.00;99694.00;;;;5090781;28;20048;-77
2022/01/01 03:01:38;;;;;;;0.57;0.57;;;;;20.90;99712.00;;;;5110746;28;20051;-78
2022/01/01 03:04:08;;;;;;;0.32;0.32;;;;;20.90;99694.00;;;;5111441;28;20047;-77
2022/01/01 03:06:37;;;;;;;0.00;0.00;;;;;20.80;99698.00;;;;5112891;28;20039;-77
2022/01/01 03:09:07;;;;;;;0.00;0.00;;;;;20.80;99680.00;;;;5110646;28;20052;-79
2022/01/01 03:11:36;;;;;;;0.00;0.00;;;;;20.70;99674.00;;;;5109515;28;20608;-81
2022/01/01 03:14:05;;;;;;;0.00;0.00;;;;;20.50;99692.00;;;;5110334;28;20859;-74
2022/01/01 03:16:36;;;;;;;0.00;0.00;;;;;20.50;99677.00;;;;5111513;28;20073;-78
2022/01/01 03:19:05;;;;;;;0.38;0.38;;;;;20.50;99663.00;;;;5110470;28;20730;-76
2022/01/01 03:21:34;;;;;;;1.38;0.80;;;;;20.50;99672.00;;;;5109739;28;20047;-81
2022/01/01 03:24:04;;;;;;;0.00;0.00;;;;;20.50;99675.00;;;;5110708;28;20061;-77
2022/01/01 03:26:34;;;;;;;1.92;0.85;;;;;20.50;99679.00;;;;5112460;28;20047;-80
2022/01/01 03:29:04;;;;;;;0.08;0.08;;;;;20.50;99667.00;;;;5110786;28;20044;-76
2022/01/01 03:31:33;;;;;;;0.30;0.30;;;;;20.50;99670.00;;;;5109756;28;20040;-75
2022/01/01 03:34:03;;;;;;;0.00;0.00;;;;;20.40;99654.00;;;;5108036;28;20044;-75
2022/01/01 03:36:33;;;;;;;2.00;0.22;;;;;20.40;99644.00;;;;5108480;28;20055;-77
2022/01/01 03:39:03;;;;;;;0.20;0.20;;;;;20.40;99651.00;;;;5109461;28;20067;-78
2022/01/01 03:41:33;;;;;;;0.73;0.53;;;;;20.30;99662.00;;;;5105607;28;20054;-77
2022/01/01 03:44:02;;;;;;;0.15;0.15;;;;;20.30;99636.00;;;;5106156;28;20050;-77
2022/01/01 03:46:32;;;;;;;0.00;0.00;;;;;20.30;99639.00;;;;5107555;28;20039;-79
2022/01/01 03:49:01;;;;;;;0.00;0.00;;;;;20.30;99635.00;;;;5110563;28;20061;-80
2022/01/01 03:51:30;;;;;;;0.17;0.10;;;;;20.30;99646.00;;;;5109645;28;20092;-79
2022/01/01 03:54:00;;;;;;;0.00;0.00;;;;;20.30;99645.00;;;;5108974;28;20032;-76
2022/01/01 03:56:30;;;;;;;0.22;0.22;;;;;20.30;99646.00;;;;5110036;28;20535;-81
2022/01/01 03:58:59;;;;;;;0.32;0.32;;;;;20.20;99650.00;;;;5109565;28;20047;-79
2022/01/01 04:01:29;;;;;;;0.22;0.15;;;;;20.20;99647.00;;;;5109329;28;20143;-79
2022/01/01 04:03:58;;;;;;;1.02;0.65;;;;;20.20;99654.00;;;;5109491;28;20422;-79
2022/01/01 04:06:28;;;;;;;0.00;0.00;;;;;20.10;99632.00;;;;5108876;28;20039;-78
2022/01/01 04:08:58;;;;;;;0.10;0.10;;;;;20.10;99655.00;;;;5109479;28;20463;-77
2022/01/01 04:11:27;;;;;;;0.63;0.63;;;;;20.20;99652.00;;;;5108885;28;20039;-78
2022/01/01 04:13:56;;;;;;;0.10;0.10;;;;;20.20;99642.00;;;;5109979;28;20040;-80
2022/01/01 04:16:27;;;;;;;0.13;0.13;;;;;20.20;99665.00;;;;5109029;28;20566;-74
2022/01/01 04:18:57;;;;;;;24.58;0.98;;;;;20.20;99669.00;;;;5108734;28;20089;-77
2022/01/01 04:21:26;;;;;;;0.95;0.22;;;;;20.20;99665.00;;;;5107581;28;20062;-76
2022/01/01 04:23:56;;;;;;;0.10;0.10;;;;;20.20;99655.00;;;;5107221;28;20059;-77
2022/01/01 04:26:25;;;;;;;0.00;0.00;;;;;20.20;99661.00;;;;5108608;28;20040;-82
2022/01/01 04:28:54;;;;;;;0.15;0.15;;;;;20.20;99666.00;;;;5108637;28;20055;-76
2022/01/01 04:31:24;;;;;;;0.00;0.00;;;;;20.20;99659.00;;;;5108321;28;20048;-76
2022/01/01 04:33:53;;;;;;;0.10;0.10;;;;;20.20;99642.00;;;;5108355;28;20043;-80
2022/01/01 04:36:23;;;;;;;0.30;0.30;;;;;20.20;99646.00;;;;5108112;28;20051;-74
2022/01/01 04:38:53;;;;;;;0.00;0.00;;;;;20.20;99651.00;;;;5108600;28;20563;-77
2022/01/01 04:41:22;;;;;;;0.00;0.00;;;;;20.10;99654.00;;;;5108246;28;20040;-78
2022/01/01 04:43:51;;;;;;;0.00;0.00;;;;;20.00;99653.00;;;;5107658;28;20031;-77
2022/01/01 04:46:21;;;;;;;3.42;0.57;;;;;20.00;99651.00;;;;5108945;28;20501;-78
2022/01/01 04:48:50;;;;;;;4.07;1.75;;;;;20.00;99656.00;;;;5108090;28;20088;-76
2022/01/01 04:51:20;;;;;;;0.00;0.00;;;;;20.10;99654.00;;;;5108311;28;20039;-76
2022/01/01 04:53:50;;;;;;;0.10;0.10;;;;;20.10;99640.00;;;;5108183;27;20054;-79
2022/01/01 04:56:21;;;;;;;10.30;1.88;;;;;20.00;99659.00;;;;5107767;28;20046;-75
2022/01/01 04:58:50;;;;;;;0.10;0.10;;;;;19.90;99645.00;;;;5107539;28;20048;-80
2022/01/01 05:01:20;;;;;;;0.20;0.20;;;;;19.90;99651.00;;;;5108423;27;20109;-79
2022/01/01 05:03:49;;;;;;;0.00;0.00;;;;;19.70;99634.00;;;;5108260;28;20071;-76
2022/01/01 05:06:19;;;;;;;0.00;0.00;;;;;19.60;99643.00;;;;5107676;28;20391;-75
2022/01/01 05:08:48;;;;;;;0.00;0.00;;;;;19.60;99651.00;;;;5107558;28;20132;-77
2022/01/01 05:11:18;;;;;;;0.00;0.00;;;;;19.50;99665.00;;;;5107732;28;20044;-77
2022/01/01 05:13:47;;;;;;;0.20;0.15;;;;;19.60;99664.00;;;;5106455;28;20046;-79
2022/01/01 05:16:18;;;;;;;0.00;0.00;;;;;19.60;99663.00;;;;5107211;28;20043;-78
2022/01/01 05:18:49;;;;;;;0.98;0.47;;;;;19.50;99649.00;;;;5107602;28;20471;-78
2022/01/01 05:21:19;;;;;;;0.38;0.38;;;;;19.50;99642.00;;;;5107901;28;20456;-79
2022/01/01 05:23:48;;;;;;;1.10;0.70;;;;;19.50;99649.00;;;;5107552;28;20064;-76
2022/01/01 05:26:18;;;;;;;0.52;0.52;;;;;19.50;99657.00;;;;5107439;28;20058;-76
2022/01/01 05:28:49;;;;;;;0.32;0.32;;;;;19.50;99654.00;;;;5107397;28;20043;-76
2022/01/01 05:31:20;;;;;;;0.93;0.93;;;;;19.40;99664.00;;;;5107218;28;20122;-79
2022/01/01 05:33:51;;;;;;;0.00;0.00;;;;;19.40;99665.00;;;;5107001;28;20096;-77
2022/01/01 05:36:22;;;;;;;0.60;0.47;;;;;19.30;99655.00;;;;5107398;28;20086;-78
2022/01/01 05:38:51;;;;;;;0.00;0.00;;;;;19.30;99664.00;;;;5107091;28;20035;-74
2022/01/01 05:41:21;;;;;;;0.52;0.47;;;;;19.40;99663.00;;;;5105680;28;20044;-75
2022/01/01 05:43:50;;;;;;;0.00;0.00;;;;;19.30;99646.00;;;;5106341;28;20048;-78
2022/01/01 05:46:20;;;;;;;0.00;0.00;;;;;19.20;99663.00;;;;5107547;28;20044;-76
2022/01/01 05:48:50;;;;;;;0.00;0.00;;;;;19.20;99663.00;;;;5107847;28;20039;-77
2022/01/01 05:51:19;;;;;;;0.20;0.20;;;;;19.20;99664.00;;;;5107379;28;20055;-77
2022/01/01 05:53:48;;;;;;;0.80;0.60;;;;;19.30;99663.00;;;;5106890;28;20035;-74
2022/01/01 05:56:18;;;;;;;5.38;0.80;;;;;19.30;99660.00;;;;5107124;28;20118;-79
2022/01/01 05:58:47;;;;;;;0.65;0.65;;;;;19.20;99642.00;;;;5107038;28;20043;-78
2022/01/01 06:01:17;;;;;;;0.28;0.28;;;;;19.40;99663.00;;;;5107357;28;20120;-77
2022/01/01 06:03:46;;;;;;;0.30;0.30;;;;;19.40;99650.00;;;;5107535;28;20035;-78
2022/01/01 06:06:16;;;;;;;0.00;0.00;;;;;19.30;99651.00;;;;5106979;28;20044;-78
2022/01/01 06:08:59;;;;;;;0.13;0.13;;;;;19.20;99651.00;;;;5107709;28;20074;-76
2022/01/01 06:11:29;;;;;;;3.08;1.55;;;;;19.20;99650.00;;;;5106918;28;20062;-78
2022/01/01 06:13:59;;;;;;;0.20;0.20;;;;;19.10;99636.00;;;;5107459;28;20108;-77
2022/01/01 06:16:28;;;;;;;0.17;0.17;;;;;19.00;99640.00;;;;5106351;28;20040;-78
2022/01/01 06:18:58;;;;;;;0.00;0.00;;;;;19.10;99641.00;;;;5106833;28;20043;-79
2022/01/01 06:21:27;;;;;;;0.00;0.00;;;;;19.10;99660.00;;;;5107004;28;20128;-76
2022/01/01 06:23:57;;;;;;;0.00;0.00;;;;;19.00;99638.00;;;;5106308;28;20464;-75
2022/01/01 06:26:26;;;;;;;0.10;0.10;;;;;19.00;99654.00;;;;5105486;28;20055;-78
2022/01/01 06:28:56;;;;;;;0.38;0.20;;;;;19.00;99629.00;;;;5105186;28;20047;-74
2022/01/01 06:31:25;;;;;;;0.00;0.00;;;;;18.90;99647.00;;;;5105408;28;20480;-76
2022/01/01 06:33:55;;;;;;;5.93;5.47;;;;;18.80;99649.00;;;;5105047;28;20054;-78
2022/01/01 06:36:27;;;;;;;0.00;0.00;;;;;18.80;99652.00;;;;5109596;28;20127;-78
2022/01/01 06:38:56;;;;;;;0.00;0.00;;;;;18.80;99640.00;;;;5110207;28;20466;-78
2022/01/01 06:41:26;;;;;;;0.00;0.00;;;;;18.70;99647.00;;;;5110969;28;20502;-81
2022/01/01 06:43:55;;;;;;;0.45;0.45;;;;;18.70;99664.00;;;;5110772;28;20092;-76
2022/01/01 06:46:25;;;;;;;0.00;0.00;;;;;18.70;99656.00;;;;5108651;28;20083;-76
2022/01/01 06:48:54;;;;;;;0.90;0.88;;;;;18.70;99641.00;;;;5108865;28;20122;-81
2022/01/01 06:51:24;;;;;;;0.00;0.00;;;;;18.70;99657.00;;;;5109602;28;20101;-76
2022/01/01 06:53:53;;;;;;;0.13;0.10;;;;;18.60;99652.00;;;;5109345;28;20067;-75
2022/01/01 06:56:22;;;;;;;0.00;0.00;;;;;18.60;99666.00;;;;5110916;28;20046;-77
2022/01/01 06:58:52;;;;;;;0.60;0.17;;;;;18.60;99641.00;;;;5109000;28;20054;-81
2022/01/01 07:01:21;;;;;;;0.00;0.00;;;;;18.60;99668.00;;;;5110134;28;20078;-76
2022/01/01 07:03:51;;;;;;;0.00;0.00;;;;;18.60;99672.00;;;;5110585;28;20044;-77
2022/01/01 07:06:20;;;;;;;0.00;0.00;;;;;18.50;99672.00;;;;5108936;28;20073;-76
2022/01/01 07:08:49;;;;;;;0.65;0.65;;;;;18.50;99682.00;;;;5109897;28;20048;-78
2022/01/01 07:11:19;;;;;;;1.92;1.75;;;;;18.50;99669.00;;;;5109011;28;20047;-77
2022/01/01 07:13:50;;;;;;;0.00;0.00;;;;;18.50;99662.00;;;;5110171;27;20039;-81
2022/01/01 07:16:21;;;;;;;0.20;0.17;;;;;18.40;99676.00;;;;5092312;28;20047;-78
2022/01/01 07:18:51;;;;;;;0.80;0.80;;;;;18.50;99667.00;;;;5109778;28;20097;-76
2022/01/01 07:21:20;;;;;;;0.32;0.32;;;;;18.50;99668.00;;;;5110551;28;20709;-79
2022/01/01 07:23:50;;;;;;;0.00;0.00;;;;;18.60;99686.00;;;;5110085;28;20055;-79
2022/01/01 07:26:19;;;;;;;1.75;0.90;;;;;18.50;99688.00;;;;5107867;28;20559;-80
2022/01/01 07:28:49;;;;;;;1.45;1.02;;;;;18.60;99685.00;;;;5110116;28;20461;-79
2022/01/01 07:31:19;;;;;;;0.00;0.00;;;;;18.50;99690.00;;;;5109393;28;20126;-77
2022/01/01 07:33:49;;;;;;;0.00;0.00;;;;;18.40;99704.00;;;;5108639;28;20047;-79
2022/01/01 07:36:18;;;;;;;0.00;0.00;;;;;18.40;99690.00;;;;5109789;28;20047;-76
2022/01/01 07:38:47;;;;;;;0.00;0.00;;;;;18.40;99682.00;;;;5109708;28;20088;-80
2022/01/01 07:41:16;;;;;;;0.52;0.52;;;;;18.30;99703.00;;;;5109067;28;20440;-78
2022/01/01 07:43:46;;;;;;;0.00;0.00;;;;;18.40;99714.00;;;;5108599;28;20458;-76
2022/01/01 07:46:15;;;;;;;0.00;0.00;;;;;18.40;99702.00;;;;5108700;28;20044;-79
2022/01/01 07:48:45;;;;;;;0.00;0.00;;;;;18.40;99699.00;;;;5109492;28;20050;-78
2022/01/01 07:51:14;;;;;;;9.05;8.20;;;;;18.30;99711.00;;;;5109159;28;20468;-78
2022/01/01 07:53:43;;;;;;;0.10;0.10;;;;;18.20;99709.00;;;;5110214;28;20039;-78
2022/01/01 07:56:13;;;;;;;0.00;0.00;;;;;18.30;99710.00;;;;5110003;28;20554;-76
2022/01/01 07:58:42;;;;;;;0.00;0.00;;;;;18.20;99701.00;;;;5110480;28;20042;-79
2022/01/01 08:01:12;;;;;;;0.85;0.85;;;;;18.10;99721.00;;;;5109433;28;20040;-78
2022/01/01 08:03:41;;;;;;;0.00;0.00;;;;;18.10;99718.00;;;;5110534;28;20040;-80
2022/01/01 08:06:10;;;;;;;0.43;0.43;;;;;18.00;99730.00;;;;5107723;28;20429;-78
2022/01/01 08:08:40;;;;;;;2.95;2.83;;;;;18.00;99726.00;;;;5109232;28;20047;-79
2022/01/01 08:11:09;;;;;;;0.00;0.00;;;;;18.00;99717.00;;;;5108863;28;20205;-79
2022/01/01 08:13:38;;;;;;;0.00;0.00;;;;;18.00;99739.00;;;;5109496;27;20050;-76
2022/01/01 08:16:09;;;;;;;0.00;0.00;;;;;18.10;99730.00;;;;5109051;28;20052;-73
2022/01/01 08:18:39;;;;;;;0.00;0.00;;;;;18.10;99722.00;;;;5108031;28;20050;-76
2022/01/01 08:21:08;;;;;;;0.00;0.00;;;;;18.10;99731.00;;;;5109413;28;20421;-79
2022/01/01 08:23:38;;;;;;;0.00;0.00;;;;;18.00;99731.00;;;;5108773;28;20082;-76
2022/01/01 08:26:12;;;;;;;0.00;0.00;;;;;18.00;99743.00;;;;5108844;28;20527;-73
2022/01/01 08:28:41;;;;;;;0.00;0.00;;;;;18.00;99740.00;;;;5109252;28;20039;-79
2022/01/01 08:31:11;;;;;;;0.00;0.00;;;;;18.10;99743.00;;;;5108301;28;20563;-75
2022/01/01 08:33:40;;;;;;;0.00;0.00;;;;;18.10;99754.00;;;;5108046;28;20059;-79
2022/01/01 08:36:11;;;;;;;0.00;0.00;;;;;18.10;99743.00;;;;5108389;28;20054;-80
2022/01/01 08:38:41;;;;;;;0.00;0.00;;;;;18.10;99760.00;;;;5108620;28;20039;-77
2022/01/01 08:41:10;;;;;;;2.47;2.20;;;;;18.20;99752.00;;;;5107204;28;20776;-79
2022/01/01 08:43:40;;;;;;;0.00;0.00;;;;;18.20;99757.00;;;;5108634;28;20048;-76
2022/01/01 08:46:10;;;;;;;0.47;0.47;;;;;18.30;99752.00;;;;5108191;28;20123;-78
2022/01/01 08:48:42;;;;;;;0.40;0.40;;;;;18.30;99748.00;;;;5107268;28;20050;-78
2022/01/01 08:51:20;;;;;;;0.00;0.00;;;;;18.30;99756.00;;;;5108702;28;20067;-79
2022/01/01 08:53:50;;;;;;;0.13;0.13;;;;;18.30;99753.00;;;;5106448;28;20059;-74
2022/01/01 08:56:20;;;;;;;0.00;0.00;;;;;18.30;99762.00;;;;5108191;28;20126;-76
2022/01/01 08:58:49;;;;;;;0.00;0.00;;;;;18.30;99765.00;;;;5107297;28;20039;-79
2022/01/01 09:01:19;;;;;;;0.13;0.13;;;;;18.40;99777.00;;;;5108465;28;20077;-76
2022/01/01 09:03:49;;;;;;;0.00;0.00;;;;;18.40;99788.00;;;;5108162;28;20074;-79
2022/01/01 09:06:19;;;;;;;0.00;0.00;;;;;18.50;99783.00;;;;5106581;28;20426;-77
2022/01/01 09:08:48;;;;;;;0.00;0.00;;;;;18.60;99788.00;;;;5108070;28;20051;-80
2022/01/01 09:11:17;;;;;;;0.00;0.00;;;;;18.70;99798.00;;;;5106535;28;20097;-75
2022/01/01 09:13:47;;;;;;;0.00;0.00;;;;;18.70;99784.00;;;;5108242;28;20096;-78
2022/01/01 09:16:18;;;;;;;0.00;0.00;;;;;18.80;99783.00;;;;5107895;28;20422;-78
2022/01/01 09:18:48;;;;;;;0.00;0.00;;;;;18.90;99801.00;;;;5107628;28;20040;-78
2022/01/01 09:21:17;;;;;;;0.55;0.55;;;;;19.00;99785.00;;;;5107723;28;20444;-80
2022/01/01 09:23:47;;;;;;;0.32;0.32;;;;;19.10;99811.00;;;;5107718;28;20063;-78
2022/01/01 09:26:16;;;;;;;0.00;0.00;;;;;19.30;99805.00;;;;5108064;28;20058;-76
2022/01/01 09:28:46;;;;;;;0.00;0.00;;;;;19.30;99788.00;;;;5106376;28;20593;-78
2022/01/01 09:31:15;;;;;;;0.00;0.00;;;;;19.50;99798.00;;;;5107356;28;20036;-76
2022/01/01 09:33:45;;;;;;;0.00;0.00;;;;;19.60;99787.00;;;;5107559;28;20055;-77
2022/01/01 09:36:17;;;;;;;0.00;0.00;;;;;20.50;99771.00;;;;5107598;28;20044;-77
2022/01/01 09:38:47;;;;;;;0.15;0.10;;;;;21.20;99710.00;;;;5107726;27;20036;-76
2022/01/01 09:41:17;;;;;;;0.00;0.00;;;;;22.20;99750.00;;;;5107722;28;20440;-77
2022/01/01 09:43:47;;;;;;;0.00;0.00;;;;;21.70;99781.00;;;;5107684;28;20046;-76
2022/01/01 09:46:17;;;;;;;0.00;0.00;;;;;21.30;99783.00;;;;5107615;28;20104;-75
2022/01/01 09:48:56;;;;;;;0.20;0.20;;;;;21.40;99800.00;;;;5107623;28;20063;-79
2022/01/01 09:51:26;;;;;;;0.00;0.00;;;;;22.30;99723.00;;;;5105908;28;20576;-76
2022/01/01 09:53:55;;;;;;;0.00;0.00;;;;;22.50;99783.00;;;;5107419;28;20476;-81
2022/01/01 09:56:24;;;;;;;0.00;0.00;;;;;21.80;99786.00;;;;5106824;28;20039;-77
2022/01/01 09:58:54;;;;;;;0.60;0.60;;;;;21.70;99812.00;;;;5107668;28;20097;-74
2022/01/01 10:01:23;;;;;;;0.00;0.00;;;;;22.00;99788.00;;;;5107298;28;20039;-76
2022/01/01 10:03:56;;;;;;;0.00;0.00;;;;;22.10;99796.00;;;;5105924;28;20460;-78
2022/01/01 10:06:29;;;;;;;0.00;0.00;;;;;22.30;99799.00;;;;5107041;28;20043;-74
2022/01/01 10:09:05;;;;;;;0.17;0.17;;;;;22.30;99813.00;;;;5107618;28;20063;-77
2022/01/01 10:11:37;;;;;;;3.30;1.35;;;;;22.40;99807.00;;;;5105864;28;20062;-76
2022/01/01 10:14:07;;;;;;;0.00;0.00;;;;;22.60;99799.00;;;;5105702;28;20055;-78
2022/01/01 10:16:44;;;;;;;0.00;0.00;;;;;22.70;99806.00;;;;5106876;28;20344;-79
2022/01/01 10:19:14;;;;;;;0.55;0.55;;;;;22.90;99813.00;;;;5106483;28;20051;-77
2022/01/01 10:21:50;;;;;;;0.00;0.00;;;;;23.00;99801.00;;;;5107296;28;20067;-78
2022/01/01 10:24:29;;;;;;;0.22;0.22;;;;;23.10;99806.00;;;;5107364;28;20048;-76
2022/01/01 10:30:00;;;;;;;13.55;12.63;;;;;23.80;99794.00;;;;5106766;28;20043;-77
2022/01/01 10:32:29;;;;;;;0.65;0.60;;;;;23.70;99792.00;;;;5106989;28;20035;-78
2022/01/01 10:35:00;;;;;;;11.63;7.88;;;;;25.10;99767.00;;;;5106553;28;20044;-75
2022/01/01 10:37:34;;;;;;;0.15;0.15;;;;;24.60;99784.00;;;;5106654;28;20070;-77
2022/01/01 10:40:10;;;;;;;0.00;0.00;;;;;24.40;99807.00;;;;5106430;28;20063;-77
2022/01/01 10:42:50;;;;;;;0.55;0.55;;;;;24.80;99787.00;;;;5106805;28;20039;-75
2022/01/01 10:45:40;;;;;;;0.38;0.25;;;;;25.20;99801.00;;;;5106846;28;20510;-77
2022/01/01 10:49:09;;;;;;;13.50;2.90;;;;;24.70;99810.00;;;;5105036;28;20055;-79
2022/01/01 10:51:04;;;;;;;0.00;0.00;;;;;24.70;99817.00;;;;5099992;28;20561;-79
2022/01/01 10:53:35;;;;;;;0.00;0.00;;;;;25.50;99799.00;;;;5105244;28;20083;-76
2022/01/01 10:56:25;;;;;;;0.32;0.32;;;;;24.90;99801.00;;;;5106079;28;20043;-78
2022/01/01 10:58:59;;;;;;;;;;;;;25.10;99821.00;;;;5106086;28;20043;-75
2022/01/01 11:01:33;;;;;;;1.27;1.10;;;;;25.20;99808.00;;;;5105168;28;20306;-75
2022/01/01 11:04:05;;;;;;;0.17;0.17;;;;;25.50;99820.00;;;;5105781;28;20543;-79
2022/01/01 11:06:34;;;;;;;1.52;1.42;;;;;26.20;99786.00;;;;5105739;28;20044;-80
2022/01/01 11:09:04;;;;;;;0.32;0.32;;;;;29.30;99656.00;;;;5106699;28;20426;-75
2022/01/01 11:11:35;;;;;;;0.63;0.63;;;;;33.50;99620.00;;;;5106180;28;20178;-77
2022/01/01 11:14:08;;;;;;;0.08;0.08;;;;;35.00;99622.00;;;;5106205;28;20032;-78
2022/01/01 11:16:38;;;;;;;0.00;0.00;;;;;35.40;99627.00;;;;5106513;28;20792;-79
2022/01/01 11:19:09;;;;;;;0.10;0.10;;;;;35.80;99612.00;;;;5104648;28;20047;-80
2022/01/01 11:21:38;;;;;;;1.15;0.98;;;;;36.00;99619.00;;;;5107764;28;20039;-79
2022/01/01 11:24:08;;;;;;;0.00;0.00;;;;;36.10;99628.00;;;;5110097;28;20857;-83
2022/01/01 11:26:38;;;;;;;0.00;0.00;;;;;36.50;99628.00;;;;5109526;28;20107;-83
2022/01/01 11:29:07;;;;;;;0.20;0.20;;;;;37.20;99620.00;;;;5110320;28;20066;-80
2022/01/01 11:31:40;;;;;;;0.13;0.13;;;;;36.80;99607.00;;;;5108754;28;20475;-79
2022/01/01 11:34:12;;;;;;;0.47;0.47;;;;;36.00;99622.00;;;;5109186;28;20048;-78
2022/01/01 11:36:42;;;;;;;0.00;0.00;;;;;35.90;99618.00;;;;5109652;28;20040;-81
2022/01/01 11:39:14;;;;;;;1.55;1.45;;;;;35.80;99625.00;;;;5109793;28;20047;-79
2022/01/01 11:41:44;;;;;;;1.38;1.27;;;;;35.80;99626.00;;;;5108859;28;20050;-76
2022/01/01 11:44:35;;;;;;;0.13;0.13;;;;;35.10;99628.00;;;;5109757;28;20044;-74
2022/01/01 11:47:07;;;;;;;0.00;0.00;;;;;35.50;99630.00;;;;5109003;28;20510;-76
2022/01/01 11:49:37;;;;;;;0.35;0.20;;;;;35.60;99630.00;;;;5109574;28;20032;-75
2022/01/01 11:52:42;;;;;;;0.47;0.47;;;;;35.90;99642.00;;;;5109594;28;20048;-76
2022/01/01 11:55:14;;;;;;;0.28;0.28;;;;;34.80;99657.00;;;;5109667;28;20065;-78
2022/01/01 11:58:12;;;;;;;0.25;0.25;;;;;34.40;99659.00;;;;5109450;28;20085;-79
2022/01/01 12:00:56;;;;;;;0.75;0.28;;;;;33.60;99681.00;;;;5109592;28;20050;-75
2022/01/01 12:03:26;;;;;;;0.45;0.40;;;;;32.90;99694.00;;;;5108925;28;20050;-77
2022/01/01 12:06:03;;;;;;;1.70;1.60;;;;;32.40;99753.00;;;;5108654;28;20048;-76
2022/01/01 12:08:46;;;;;;;0.38;0.38;;;;;31.80;99765.00;;;;5108829;28;20054;-77
2022/01/01 12:11:32;;;;;;;0.28;0.28;;;;;31.70;99771.00;;;;5108332;28;20043;-80
2022/01/01 12:14:03;;;;;;;1.52;1.42;;;;;32.20;99766.00;;;;5108392;28;20540;-75
2022/01/01 12:16:32;;;;;;;0.30;0.30;;;;;32.60;99769.00;;;;5108884;28;20046;-77
2022/01/01 12:19:06;;;;;;;0.00;0.00;;;;;32.70;99774.00;;;;5109268;28;20054;-74
2022/01/01 12:21:42;;;;;;;0.55;0.47;;;;;32.90;99768.00;;;;5107622;28;20123;-77
2022/01/01 12:24:20;;;;;;;1.33;0.47;;;;;32.70;99783.00;;;;5106974;28;20071;-75
2022/01/01 12:26:53;;;;;;;0.85;0.65;;;;;32.30;99770.00;;;;5108275;28;20512;-77
2022/01/01 12:29:25;;;;;;;0.35;0.35;;;;;32.20;99775.00;;;;5108397;28;20035;-79
2022/01/01 12:31:56;;;;;;;1.52;0.60;;;;;32.20;99773.00;;;;5108315;28;20047;-80
2022/01/01 12:34:27;;;;;;;0.75;0.32;;;;;32.20;99774.00;;;;5107048;28;20101;-77
2022/01/01 12:36:57;;;;;;;11.90;1.10;;;;;32.40;99769.00;;;;5107884;28;20117;-76
2022/01/01 12:39:26;;;;;;;1.63;0.95;;;;;32.90;99757.00;;;;5108580;28;20036;-78
2022/01/01 12:41:57;;;;;;;1.00;0.50;;;;;32.80;99768.00;;;;5108043;28;20063;-79